sensor_id;sensor_type;location;lat;lon;timestamp;P1;durP1;ratioP1;P2;durP2;ratioP2
74541;SDS011;63015;45.378;20.360;2023-03-01T00:01:04;42.00;;;17.77;;
74541;SDS011;63015;45.378;20.360;2023-03-01T00:03:06;39.22;;;17.13;;
74541;SDS011;63015;45.378;20.360;2023-03-01T00:05:07;44.63;;;18.23;;
74541;SDS011;63015;45.378;20.360;2023-03-01T00:07:07;40.13;;;18.05;;
74541;SDS011;63015;45.378;20.360;2023-03-01T00:09:08;44.47;;;20.08;;
74541;SDS011;63015;45.378;20.360;2023-03-01T00:11:13;37.58;;;16.33;;
74541;SDS011;63015;45.378;20.360;2023-03-01T00:13:15;32.67;;;16.10;;
74541;SDS011;63015;45.378;20.360;2023-03-01T00:15:16;31.80;;;14.10;;
74541;SDS011;63015;45.378;20.360;2023-03-01T00:17:16;42.17;;;18.38;;
74541;SDS011;63015;45.378;20.360;2023-03-01T00:19:17;18.98;;;9.77;;
74541;SDS011;63015;45.378;20.360;2023-03-01T00:21:19;40.30;;;18.42;;
74541;SDS011;63015;45.378;20.360;2023-03-01T00:23:22;19.08;;;9.52;;
74541;SDS011;63015;45.378;20.360;2023-03-01T00:25:23;46.28;;;21.67;;
74541;SDS011;63015;45.378;20.360;2023-03-01T00:27:23;30.38;;;14.20;;
74541;SDS011;63015;45.378;20.360;2023-03-01T00:29:24;29.17;;;11.02;;
74541;SDS011;63015;45.378;20.360;2023-03-01T00:31:28;27.63;;;12.27;;
74541;SDS011;63015;45.378;20.360;2023-03-01T00:33:30;45.10;;;20.48;;
74541;SDS011;63015;45.378;20.360;2023-03-01T00:35:34;42.47;;;20.63;;
74541;SDS011;63015;45.378;20.360;2023-03-01T00:37:35;42.35;;;19.50;;
74541;SDS011;63015;45.378;20.360;2023-03-01T00:39:36;27.83;;;12.40;;
74541;SDS011;63015;45.378;20.360;2023-03-01T00:41:36;40.80;;;17.52;;
74541;SDS011;63015;45.378;20.360;2023-03-01T00:43:37;40.03;;;17.45;;
74541;SDS011;63015;45.378;20.360;2023-03-01T00:45:37;21.75;;;10.38;;
74541;SDS011;63015;45.378;20.360;2023-03-01T00:47:38;40.00;;;17.92;;
74541;SDS011;63015;45.378;20.360;2023-03-01T00:49:39;35.55;;;15.10;;
74541;SDS011;63015;45.378;20.360;2023-03-01T00:51:39;22.55;;;10.77;;
74541;SDS011;63015;45.378;20.360;2023-03-01T00:53:41;28.55;;;12.05;;
74541;SDS011;63015;45.378;20.360;2023-03-01T00:55:42;37.22;;;17.13;;
74541;SDS011;63015;45.378;20.360;2023-03-01T00:57:42;41.67;;;17.42;;
74541;SDS011;63015;45.378;20.360;2023-03-01T00:59:43;35.63;;;16.20;;
74541;SDS011;63015;45.378;20.360;2023-03-01T01:01:43;23.05;;;10.77;;
74541;SDS011;63015;45.378;20.360;2023-03-01T01:03:45;38.42;;;17.20;;
74541;SDS011;63015;45.378;20.360;2023-03-01T01:05:48;19.13;;;8.45;;
74541;SDS011;63015;45.378;20.360;2023-03-01T01:07:51;39.35;;;15.88;;
74541;SDS011;63015;45.378;20.360;2023-03-01T01:09:52;31.08;;;14.07;;
74541;SDS011;63015;45.378;20.360;2023-03-01T01:11:52;29.00;;;11.88;;
74541;SDS011;63015;45.378;20.360;2023-03-01T01:13:53;18.23;;;8.48;;
74541;SDS011;63015;45.378;20.360;2023-03-01T01:16:00;22.27;;;10.82;;
74541;SDS011;63015;45.378;20.360;2023-03-01T01:18:01;32.22;;;14.20;;
74541;SDS011;63015;45.378;20.360;2023-03-01T01:20:02;30.05;;;12.15;;
74541;SDS011;63015;45.378;20.360;2023-03-01T01:22:03;43.80;;;18.38;;
74541;SDS011;63015;45.378;20.360;2023-03-01T01:24:04;24.88;;;11.45;;
74541;SDS011;63015;45.378;20.360;2023-03-01T01:26:06;34.30;;;13.95;;
74541;SDS011;63015;45.378;20.360;2023-03-01T01:28:09;36.08;;;16.08;;
74541;SDS011;63015;45.378;20.360;2023-03-01T01:30:10;35.88;;;15.60;;
74541;SDS011;63015;45.378;20.360;2023-03-01T01:32:12;40.42;;;18.48;;
74541;SDS011;63015;45.378;20.360;2023-03-01T01:34:16;32.60;;;14.65;;
74541;SDS011;63015;45.378;20.360;2023-03-01T01:36:18;43.80;;;18.45;;
74541;SDS011;63015;45.378;20.360;2023-03-01T01:38:19;34.63;;;15.48;;
74541;SDS011;63015;45.378;20.360;2023-03-01T01:40:21;39.00;;;17.25;;
74541;SDS011;63015;45.378;20.360;2023-03-01T01:42:21;36.33;;;16.98;;
74541;SDS011;63015;45.378;20.360;2023-03-01T01:44:26;14.20;;;7.45;;
74541;SDS011;63015;45.378;20.360;2023-03-01T01:46:29;29.17;;;12.68;;
74541;SDS011;63015;45.378;20.360;2023-03-01T01:48:39;22.27;;;9.57;;
74541;SDS011;63015;45.378;20.360;2023-03-01T01:50:43;22.40;;;11.63;;
74541;SDS011;63015;45.378;20.360;2023-03-01T01:52:45;33.83;;;13.40;;
74541;SDS011;63015;45.378;20.360;2023-03-01T01:57:03;28.73;;;10.90;;
74541;SDS011;63015;45.378;20.360;2023-03-01T01:59:13;22.30;;;9.73;;
74541;SDS011;63015;45.378;20.360;2023-03-01T02:01:14;18.90;;;9.27;;
74541;SDS011;63015;45.378;20.360;2023-03-01T02:03:17;17.95;;;8.30;;
74541;SDS011;63015;45.378;20.360;2023-03-01T02:07:47;30.85;;;14.65;;
74541;SDS011;63015;45.378;20.360;2023-03-01T02:09:53;25.20;;;11.35;;
74541;SDS011;63015;45.378;20.360;2023-03-01T02:11:53;36.20;;;15.52;;
74541;SDS011;63015;45.378;20.360;2023-03-01T02:13:54;38.00;;;16.98;;
74541;SDS011;63015;45.378;20.360;2023-03-01T02:15:55;39.47;;;17.20;;
74541;SDS011;63015;45.378;20.360;2023-03-01T02:17:56;28.83;;;13.27;;
74541;SDS011;63015;45.378;20.360;2023-03-01T02:22:33;32.85;;;12.35;;
74541;SDS011;63015;45.378;20.360;2023-03-01T02:24:40;28.95;;;13.30;;
74541;SDS011;63015;45.378;20.360;2023-03-01T02:26:50;35.80;;;15.40;;
74541;SDS011;63015;45.378;20.360;2023-03-01T02:28:53;36.72;;;16.98;;
74541;SDS011;63015;45.378;20.360;2023-03-01T02:30:54;34.63;;;14.80;;
74541;SDS011;63015;45.378;20.360;2023-03-01T02:33:13;38.65;;;16.15;;
74541;SDS011;63015;45.378;20.360;2023-03-01T02:35:14;37.03;;;15.82;;
74541;SDS011;63015;45.378;20.360;2023-03-01T02:37:16;40.25;;;17.38;;
74541;SDS011;63015;45.378;20.360;2023-03-01T02:39:26;32.55;;;14.45;;
74541;SDS011;63015;45.378;20.360;2023-03-01T02:41:30;42.00;;;18.17;;
74541;SDS011;63015;45.378;20.360;2023-03-01T02:43:36;35.55;;;15.40;;
74541;SDS011;63015;45.378;20.360;2023-03-01T02:45:42;37.70;;;16.60;;
74541;SDS011;63015;45.378;20.360;2023-03-01T02:47:52;18.55;;;9.80;;
74541;SDS011;63015;45.378;20.360;2023-03-01T02:49:55;40.13;;;17.65;;
74541;SDS011;63015;45.378;20.360;2023-03-01T02:56:23;33.30;;;15.55;;
74541;SDS011;63015;45.378;20.360;2023-03-01T02:58:23;45.10;;;18.85;;
74541;SDS011;63015;45.378;20.360;2023-03-01T03:00:32;43.30;;;17.25;;
74541;SDS011;63015;45.378;20.360;2023-03-01T03:02:46;31.15;;;14.05;;
74541;SDS011;63015;45.378;20.360;2023-03-01T03:04:51;44.60;;;18.58;;
74541;SDS011;63015;45.378;20.360;2023-03-01T03:06:52;48.33;;;20.77;;
74541;SDS011;63015;45.378;20.360;2023-03-01T03:08:53;38.45;;;16.48;;
74541;SDS011;63015;45.378;20.360;2023-03-01T03:10:54;44.53;;;19.17;;
74541;SDS011;63015;45.378;20.360;2023-03-01T03:13:06;44.03;;;19.50;;
74541;SDS011;63015;45.378;20.360;2023-03-01T03:15:09;38.65;;;15.88;;
74541;SDS011;63015;45.378;20.360;2023-03-01T03:17:12;44.08;;;19.27;;
74541;SDS011;63015;45.378;20.360;2023-03-01T03:19:13;39.17;;;17.50;;
74541;SDS011;63015;45.378;20.360;2023-03-01T03:21:14;31.38;;;12.98;;
74541;SDS011;63015;45.378;20.360;2023-03-01T03:23:15;40.20;;;17.02;;
74541;SDS011;63015;45.378;20.360;2023-03-01T03:25:16;43.58;;;18.85;;
74541;SDS011;63015;45.378;20.360;2023-03-01T03:27:17;21.23;;;9.80;;
74541;SDS011;63015;45.378;20.360;2023-03-01T03:29:17;31.48;;;15.25;;
74541;SDS011;63015;45.378;20.360;2023-03-01T03:31:18;40.60;;;17.90;;
74541;SDS011;63015;45.378;20.360;2023-03-01T03:33:19;41.60;;;18.38;;
74541;SDS011;63015;45.378;20.360;2023-03-01T03:35:20;38.70;;;16.38;;
74541;SDS011;63015;45.378;20.360;2023-03-01T03:37:26;40.60;;;18.35;;
74541;SDS011;63015;45.378;20.360;2023-03-01T03:39:45;34.97;;;15.68;;
74541;SDS011;63015;45.378;20.360;2023-03-01T03:41:45;42.78;;;18.73;;
74541;SDS011;63015;45.378;20.360;2023-03-01T03:43:46;35.33;;;15.57;;
74541;SDS011;63015;45.378;20.360;2023-03-01T03:45:47;38.90;;;17.52;;
74541;SDS011;63015;45.378;20.360;2023-03-01T03:47:49;42.20;;;17.83;;
74541;SDS011;63015;45.378;20.360;2023-03-01T03:49:49;41.38;;;18.95;;
74541;SDS011;63015;45.378;20.360;2023-03-01T03:51:50;40.85;;;18.40;;
74541;SDS011;63015;45.378;20.360;2023-03-01T03:53:50;23.90;;;10.82;;
74541;SDS011;63015;45.378;20.360;2023-03-01T03:55:51;38.30;;;16.33;;
74541;SDS011;63015;45.378;20.360;2023-03-01T03:57:51;29.13;;;12.75;;
74541;SDS011;63015;45.378;20.360;2023-03-01T03:59:54;45.90;;;18.75;;
74541;SDS011;63015;45.378;20.360;2023-03-01T04:01:54;34.00;;;15.13;;
74541;SDS011;63015;45.378;20.360;2023-03-01T04:03:54;33.63;;;13.55;;
74541;SDS011;63015;45.378;20.360;2023-03-01T04:05:57;44.97;;;20.15;;
74541;SDS011;63015;45.378;20.360;2023-03-01T04:07:59;46.88;;;20.20;;
74541;SDS011;63015;45.378;20.360;2023-03-01T04:10:03;30.88;;;14.50;;
74541;SDS011;63015;45.378;20.360;2023-03-01T04:12:04;44.00;;;19.17;;
74541;SDS011;63015;45.378;20.360;2023-03-01T04:14:05;45.20;;;19.27;;
74541;SDS011;63015;45.378;20.360;2023-03-01T04:16:05;48.65;;;20.50;;
74541;SDS011;63015;45.378;20.360;2023-03-01T04:18:06;47.08;;;19.80;;
74541;SDS011;63015;45.378;20.360;2023-03-01T04:20:10;41.55;;;18.42;;
74541;SDS011;63015;45.378;20.360;2023-03-01T04:22:16;45.42;;;21.63;;
74541;SDS011;63015;45.378;20.360;2023-03-01T04:24:18;54.47;;;23.48;;
74541;SDS011;63015;45.378;20.360;2023-03-01T04:26:19;41.05;;;15.85;;
74541;SDS011;63015;45.378;20.360;2023-03-01T04:28:27;48.70;;;20.67;;
74541;SDS011;63015;45.378;20.360;2023-03-01T04:32:35;45.17;;;20.55;;
74541;SDS011;63015;45.378;20.360;2023-03-01T04:34:36;47.17;;;20.52;;
74541;SDS011;63015;45.378;20.360;2023-03-01T04:36:36;48.53;;;20.55;;
74541;SDS011;63015;45.378;20.360;2023-03-01T04:38:37;48.28;;;21.23;;
74541;SDS011;63015;45.378;20.360;2023-03-01T04:40:38;50.92;;;19.75;;
74541;SDS011;63015;45.378;20.360;2023-03-01T04:42:39;44.40;;;18.98;;
74541;SDS011;63015;45.378;20.360;2023-03-01T04:44:40;46.92;;;20.45;;
74541;SDS011;63015;45.378;20.360;2023-03-01T04:46:42;47.67;;;21.80;;
74541;SDS011;63015;45.378;20.360;2023-03-01T04:48:43;49.78;;;21.92;;
74541;SDS011;63015;45.378;20.360;2023-03-01T04:50:45;48.78;;;22.25;;
74541;SDS011;63015;45.378;20.360;2023-03-01T04:52:46;47.70;;;21.05;;
74541;SDS011;63015;45.378;20.360;2023-03-01T04:54:47;49.25;;;22.17;;
74541;SDS011;63015;45.378;20.360;2023-03-01T04:56:47;49.45;;;22.35;;
74541;SDS011;63015;45.378;20.360;2023-03-01T04:58:48;48.70;;;21.30;;
74541;SDS011;63015;45.378;20.360;2023-03-01T05:00:49;48.70;;;22.50;;
74541;SDS011;63015;45.378;20.360;2023-03-01T05:02:50;45.75;;;20.15;;
74541;SDS011;63015;45.378;20.360;2023-03-01T05:04:55;43.58;;;19.30;;
74541;SDS011;63015;45.378;20.360;2023-03-01T05:06:57;49.63;;;19.80;;
74541;SDS011;63015;45.378;20.360;2023-03-01T05:08:58;47.30;;;20.75;;
74541;SDS011;63015;45.378;20.360;2023-03-01T05:10:59;47.03;;;21.60;;
74541;SDS011;63015;45.378;20.360;2023-03-01T05:13:00;44.15;;;19.52;;
74541;SDS011;63015;45.378;20.360;2023-03-01T05:15:01;41.20;;;18.95;;
74541;SDS011;63015;45.378;20.360;2023-03-01T05:17:07;38.42;;;18.35;;
74541;SDS011;63015;45.378;20.360;2023-03-01T05:19:08;43.72;;;20.33;;
74541;SDS011;63015;45.378;20.360;2023-03-01T05:21:15;46.55;;;20.52;;
74541;SDS011;63015;45.378;20.360;2023-03-01T05:23:16;43.78;;;19.50;;
74541;SDS011;63015;45.378;20.360;2023-03-01T05:25:17;43.70;;;19.73;;
74541;SDS011;63015;45.378;20.360;2023-03-01T05:27:17;44.67;;;19.40;;
74541;SDS011;63015;45.378;20.360;2023-03-01T05:29:19;41.03;;;19.15;;
74541;SDS011;63015;45.378;20.360;2023-03-01T05:31:24;43.75;;;20.08;;
74541;SDS011;63015;45.378;20.360;2023-03-01T05:33:25;47.20;;;20.83;;
74541;SDS011;63015;45.378;20.360;2023-03-01T05:35:26;43.92;;;20.85;;
74541;SDS011;63015;45.378;20.360;2023-03-01T05:37:27;47.78;;;20.88;;
74541;SDS011;63015;45.378;20.360;2023-03-01T05:39:29;48.75;;;21.73;;
74541;SDS011;63015;45.378;20.360;2023-03-01T05:41:29;45.65;;;21.33;;
74541;SDS011;63015;45.378;20.360;2023-03-01T05:43:32;46.75;;;21.02;;
74541;SDS011;63015;45.378;20.360;2023-03-01T05:45:36;46.95;;;22.55;;
74541;SDS011;63015;45.378;20.360;2023-03-01T05:47:41;50.60;;;22.02;;
74541;SDS011;63015;45.378;20.360;2023-03-01T05:49:43;47.60;;;21.48;;
74541;SDS011;63015;45.378;20.360;2023-03-01T05:51:47;50.03;;;23.48;;
74541;SDS011;63015;45.378;20.360;2023-03-01T05:53:48;50.20;;;22.65;;
74541;SDS011;63015;45.378;20.360;2023-03-01T05:55:49;52.72;;;23.83;;
74541;SDS011;63015;45.378;20.360;2023-03-01T05:57:51;47.65;;;21.90;;
74541;SDS011;63015;45.378;20.360;2023-03-01T05:59:51;47.67;;;20.80;;
74541;SDS011;63015;45.378;20.360;2023-03-01T06:01:52;43.28;;;20.20;;
74541;SDS011;63015;45.378;20.360;2023-03-01T06:03:53;46.53;;;19.88;;
74541;SDS011;63015;45.378;20.360;2023-03-01T06:05:57;45.25;;;20.02;;
74541;SDS011;63015;45.378;20.360;2023-03-01T06:07:58;47.40;;;21.05;;
74541;SDS011;63015;45.378;20.360;2023-03-01T06:10:00;40.75;;;19.50;;
74541;SDS011;63015;45.378;20.360;2023-03-01T06:12:01;40.88;;;19.55;;
74541;SDS011;63015;45.378;20.360;2023-03-01T06:14:02;38.60;;;17.10;;
74541;SDS011;63015;45.378;20.360;2023-03-01T06:16:04;39.65;;;17.83;;
74541;SDS011;63015;45.378;20.360;2023-03-01T06:18:06;43.40;;;19.15;;
74541;SDS011;63015;45.378;20.360;2023-03-01T06:20:08;42.17;;;19.42;;
74541;SDS011;63015;45.378;20.360;2023-03-01T06:22:14;49.47;;;19.55;;
74541;SDS011;63015;45.378;20.360;2023-03-01T06:24:14;43.13;;;18.60;;
74541;SDS011;63015;45.378;20.360;2023-03-01T06:26:15;39.45;;;18.98;;
74541;SDS011;63015;45.378;20.360;2023-03-01T06:28:16;43.72;;;19.95;;
74541;SDS011;63015;45.378;20.360;2023-03-01T06:30:17;43.90;;;19.50;;
74541;SDS011;63015;45.378;20.360;2023-03-01T06:32:19;31.40;;;14.10;;
74541;SDS011;63015;45.378;20.360;2023-03-01T06:34:19;32.70;;;15.18;;
74541;SDS011;63015;45.378;20.360;2023-03-01T06:36:21;39.72;;;18.95;;
74541;SDS011;63015;45.378;20.360;2023-03-01T06:38:22;39.10;;;19.10;;
74541;SDS011;63015;45.378;20.360;2023-03-01T06:40:24;23.35;;;11.05;;
74541;SDS011;63015;45.378;20.360;2023-03-01T06:42:25;40.92;;;18.30;;
74541;SDS011;63015;45.378;20.360;2023-03-01T06:44:26;39.88;;;18.73;;
74541;SDS011;63015;45.378;20.360;2023-03-01T06:46:26;28.33;;;13.50;;
74541;SDS011;63015;45.378;20.360;2023-03-01T06:48:27;40.08;;;19.65;;
74541;SDS011;63015;45.378;20.360;2023-03-01T06:50:28;40.50;;;19.02;;
74541;SDS011;63015;45.378;20.360;2023-03-01T06:52:28;42.85;;;19.67;;
74541;SDS011;63015;45.378;20.360;2023-03-01T06:54:29;46.53;;;20.98;;
74541;SDS011;63015;45.378;20.360;2023-03-01T06:56:30;46.72;;;19.55;;
74541;SDS011;63015;45.378;20.360;2023-03-01T06:58:32;45.97;;;20.52;;
74541;SDS011;63015;45.378;20.360;2023-03-01T07:00:32;44.97;;;19.83;;
74541;SDS011;63015;45.378;20.360;2023-03-01T07:02:33;37.00;;;17.63;;
74541;SDS011;63015;45.378;20.360;2023-03-01T07:04:33;43.47;;;18.90;;
74541;SDS011;63015;45.378;20.360;2023-03-01T07:06:34;50.45;;;21.75;;
74541;SDS011;63015;45.378;20.360;2023-03-01T07:08:34;49.33;;;23.20;;
74541;SDS011;63015;45.378;20.360;2023-03-01T07:10:35;44.08;;;19.75;;
74541;SDS011;63015;45.378;20.360;2023-03-01T07:12:35;44.85;;;21.20;;
74541;SDS011;63015;45.378;20.360;2023-03-01T07:14:36;47.53;;;21.70;;
74541;SDS011;63015;45.378;20.360;2023-03-01T07:16:37;45.47;;;21.98;;
74541;SDS011;63015;45.378;20.360;2023-03-01T07:18:37;37.35;;;16.45;;
74541;SDS011;63015;45.378;20.360;2023-03-01T07:20:39;40.15;;;19.50;;
74541;SDS011;63015;45.378;20.360;2023-03-01T07:22:40;46.45;;;21.80;;
74541;SDS011;63015;45.378;20.360;2023-03-01T07:24:42;45.63;;;21.73;;
74541;SDS011;63015;45.378;20.360;2023-03-01T07:26:43;39.42;;;18.50;;
74541;SDS011;63015;45.378;20.360;2023-03-01T07:28:44;33.85;;;17.60;;
74541;SDS011;63015;45.378;20.360;2023-03-01T07:30:44;41.28;;;19.40;;
74541;SDS011;63015;45.378;20.360;2023-03-01T07:32:45;41.13;;;20.02;;
74541;SDS011;63015;45.378;20.360;2023-03-01T07:34:45;37.70;;;18.63;;
74541;SDS011;63015;45.378;20.360;2023-03-01T07:36:46;42.03;;;20.45;;
74541;SDS011;63015;45.378;20.360;2023-03-01T07:38:50;39.75;;;17.45;;
74541;SDS011;63015;45.378;20.360;2023-03-01T07:40:50;26.63;;;12.02;;
74541;SDS011;63015;45.378;20.360;2023-03-01T07:42:57;45.55;;;20.83;;
74541;SDS011;63015;45.378;20.360;2023-03-01T07:44:58;32.08;;;14.95;;
74541;SDS011;63015;45.378;20.360;2023-03-01T07:46:59;47.75;;;20.45;;
74541;SDS011;63015;45.378;20.360;2023-03-01T07:48:59;38.92;;;16.45;;
74541;SDS011;63015;45.378;20.360;2023-03-01T07:51:01;43.53;;;19.30;;
74541;SDS011;63015;45.378;20.360;2023-03-01T07:53:02;48.28;;;21.50;;
74541;SDS011;63015;45.378;20.360;2023-03-01T07:55:05;46.47;;;22.15;;
74541;SDS011;63015;45.378;20.360;2023-03-01T07:57:06;44.72;;;20.08;;
74541;SDS011;63015;45.378;20.360;2023-03-01T07:59:06;44.63;;;20.30;;
74541;SDS011;63015;45.378;20.360;2023-03-01T08:01:08;48.90;;;21.98;;
74541;SDS011;63015;45.378;20.360;2023-03-01T08:03:10;36.65;;;17.50;;
74541;SDS011;63015;45.378;20.360;2023-03-01T08:05:11;45.17;;;20.60;;
74541;SDS011;63015;45.378;20.360;2023-03-01T08:07:11;36.00;;;16.80;;
74541;SDS011;63015;45.378;20.360;2023-03-01T08:09:12;46.50;;;20.95;;
74541;SDS011;63015;45.378;20.360;2023-03-01T08:11:13;40.38;;;19.30;;
74541;SDS011;63015;45.378;20.360;2023-03-01T08:13:14;48.08;;;23.23;;
74541;SDS011;63015;45.378;20.360;2023-03-01T08:15:15;44.47;;;22.25;;
74541;SDS011;63015;45.378;20.360;2023-03-01T08:17:15;44.13;;;20.85;;
74541;SDS011;63015;45.378;20.360;2023-03-01T08:19:16;48.85;;;22.92;;
74541;SDS011;63015;45.378;20.360;2023-03-01T08:21:17;45.40;;;21.35;;
74541;SDS011;63015;45.378;20.360;2023-03-01T08:23:18;46.05;;;22.83;;
74541;SDS011;63015;45.378;20.360;2023-03-01T08:25:18;45.58;;;22.30;;
74541;SDS011;63015;45.378;20.360;2023-03-01T08:27:19;46.70;;;23.20;;
74541;SDS011;63015;45.378;20.360;2023-03-01T08:29:19;43.03;;;21.55;;
74541;SDS011;63015;45.378;20.360;2023-03-01T08:31:22;46.95;;;22.15;;
74541;SDS011;63015;45.378;20.360;2023-03-01T08:33:23;47.05;;;22.33;;
74541;SDS011;63015;45.378;20.360;2023-03-01T08:35:24;48.38;;;22.63;;
74541;SDS011;63015;45.378;20.360;2023-03-01T08:37:24;45.92;;;21.85;;
74541;SDS011;63015;45.378;20.360;2023-03-01T08:39:25;42.75;;;20.85;;
74541;SDS011;63015;45.378;20.360;2023-03-01T08:41:25;41.38;;;20.13;;
74541;SDS011;63015;45.378;20.360;2023-03-01T08:43:26;40.83;;;20.90;;
74541;SDS011;63015;45.378;20.360;2023-03-01T08:45:27;41.72;;;18.80;;
74541;SDS011;63015;45.378;20.360;2023-03-01T08:47:27;43.15;;;19.95;;
74541;SDS011;63015;45.378;20.360;2023-03-01T08:49:28;51.03;;;23.00;;
74541;SDS011;63015;45.378;20.360;2023-03-01T08:51:28;42.00;;;19.65;;
74541;SDS011;63015;45.378;20.360;2023-03-01T08:53:29;52.38;;;22.23;;
74541;SDS011;63015;45.378;20.360;2023-03-01T08:55:30;51.67;;;24.52;;
74541;SDS011;63015;45.378;20.360;2023-03-01T08:57:31;46.42;;;20.90;;
74541;SDS011;63015;45.378;20.360;2023-03-01T08:59:31;48.38;;;22.95;;
74541;SDS011;63015;45.378;20.360;2023-03-01T09:01:37;43.72;;;20.75;;
74541;SDS011;63015;45.378;20.360;2023-03-01T09:03:38;53.47;;;23.77;;
74541;SDS011;63015;45.378;20.360;2023-03-01T09:05:38;49.50;;;23.35;;
74541;SDS011;63015;45.378;20.360;2023-03-01T09:07:39;43.40;;;21.40;;
74541;SDS011;63015;45.378;20.360;2023-03-01T09:09:40;50.15;;;23.10;;
74541;SDS011;63015;45.378;20.360;2023-03-01T09:11:40;44.63;;;23.10;;
74541;SDS011;63015;45.378;20.360;2023-03-01T09:13:41;49.30;;;22.77;;
74541;SDS011;63015;45.378;20.360;2023-03-01T09:15:41;65.38;;;29.52;;
74541;SDS011;63015;45.378;20.360;2023-03-01T09:17:42;53.25;;;22.42;;
74541;SDS011;63015;45.378;20.360;2023-03-01T09:19:42;40.08;;;18.48;;
74541;SDS011;63015;45.378;20.360;2023-03-01T09:21:43;49.00;;;22.98;;
74541;SDS011;63015;45.378;20.360;2023-03-01T09:23:52;44.30;;;22.13;;
74541;SDS011;63015;45.378;20.360;2023-03-01T09:25:52;53.53;;;25.38;;
74541;SDS011;63015;45.378;20.360;2023-03-01T09:27:53;68.63;;;31.48;;
74541;SDS011;63015;45.378;20.360;2023-03-01T09:29:54;54.08;;;26.48;;
74541;SDS011;63015;45.378;20.360;2023-03-01T09:31:56;54.47;;;26.20;;
74541;SDS011;63015;45.378;20.360;2023-03-01T09:33:56;55.20;;;26.70;;
74541;SDS011;63015;45.378;20.360;2023-03-01T09:35:58;55.95;;;26.60;;
74541;SDS011;63015;45.378;20.360;2023-03-01T09:37:59;61.05;;;28.92;;
74541;SDS011;63015;45.378;20.360;2023-03-01T09:40:00;50.55;;;24.35;;
74541;SDS011;63015;45.378;20.360;2023-03-01T09:42:02;53.10;;;25.98;;
74541;SDS011;63015;45.378;20.360;2023-03-01T09:44:13;52.28;;;26.58;;
74541;SDS011;63015;45.378;20.360;2023-03-01T09:46:36;53.33;;;25.77;;
74541;SDS011;63015;45.378;20.360;2023-03-01T09:48:42;56.20;;;25.80;;
74541;SDS011;63015;45.378;20.360;2023-03-01T09:50:46;54.83;;;27.17;;
74541;SDS011;63015;45.378;20.360;2023-03-01T09:53:05;54.10;;;26.88;;
74541;SDS011;63015;45.378;20.360;2023-03-01T09:55:13;49.88;;;25.83;;
74541;SDS011;63015;45.378;20.360;2023-03-01T10:01:40;50.47;;;24.33;;
74541;SDS011;63015;45.378;20.360;2023-03-01T10:03:44;51.95;;;25.58;;
74541;SDS011;63015;45.378;20.360;2023-03-01T10:06:15;49.75;;;24.73;;
74541;SDS011;63015;45.378;20.360;2023-03-01T10:10:36;44.92;;;23.15;;
74541;SDS011;63015;45.378;20.360;2023-03-01T10:12:39;44.55;;;23.55;;
74541;SDS011;63015;45.378;20.360;2023-03-01T10:16:54;46.63;;;23.25;;
74541;SDS011;63015;45.378;20.360;2023-03-01T10:18:59;53.03;;;24.67;;
74541;SDS011;63015;45.378;20.360;2023-03-01T10:23:16;46.13;;;23.70;;
74541;SDS011;63015;45.378;20.360;2023-03-01T10:25:18;47.80;;;23.27;;
74541;SDS011;63015;45.378;20.360;2023-03-01T10:30:14;43.35;;;22.40;;
74541;SDS011;63015;45.378;20.360;2023-03-01T10:32:20;48.92;;;23.80;;
74541;SDS011;63015;45.378;20.360;2023-03-01T10:34:26;52.47;;;25.70;;
74541;SDS011;63015;45.378;20.360;2023-03-01T10:36:32;47.03;;;22.98;;
74541;SDS011;63015;45.378;20.360;2023-03-01T10:38:47;36.72;;;19.33;;
74541;SDS011;63015;45.378;20.360;2023-03-01T10:42:57;42.72;;;21.60;;
74541;SDS011;63015;45.378;20.360;2023-03-01T10:49:22;36.75;;;19.98;;
74541;SDS011;63015;45.378;20.360;2023-03-01T10:51:23;46.47;;;22.85;;
74541;SDS011;63015;45.378;20.360;2023-03-01T10:55:36;46.05;;;22.63;;
74541;SDS011;63015;45.378;20.360;2023-03-01T10:57:38;40.08;;;19.65;;
74541;SDS011;63015;45.378;20.360;2023-03-01T10:59:41;30.88;;;15.57;;
74541;SDS011;63015;45.378;20.360;2023-03-01T11:01:41;35.22;;;17.20;;
74541;SDS011;63015;45.378;20.360;2023-03-01T11:03:42;41.25;;;20.88;;
74541;SDS011;63015;45.378;20.360;2023-03-01T11:05:53;27.60;;;13.60;;
74541;SDS011;63015;45.378;20.360;2023-03-01T11:07:59;26.02;;;13.38;;
74541;SDS011;63015;45.378;20.360;2023-03-01T11:10:08;26.35;;;12.80;;
74541;SDS011;63015;45.378;20.360;2023-03-01T11:12:15;16.67;;;7.65;;
74541;SDS011;63015;45.378;20.360;2023-03-01T11:14:18;28.50;;;14.05;;
74541;SDS011;63015;45.378;20.360;2023-03-01T11:16:30;20.70;;;9.57;;
74541;SDS011;63015;45.378;20.360;2023-03-01T11:18:38;26.63;;;12.95;;
74541;SDS011;63015;45.378;20.360;2023-03-01T11:20:39;15.60;;;9.00;;
74541;SDS011;63015;45.378;20.360;2023-03-01T11:22:44;20.85;;;10.18;;
74541;SDS011;63015;45.378;20.360;2023-03-01T11:24:50;17.25;;;8.57;;
74541;SDS011;63015;45.378;20.360;2023-03-01T11:26:54;23.58;;;12.98;;
74541;SDS011;63015;45.378;20.360;2023-03-01T11:28:55;25.15;;;13.63;;
74541;SDS011;63015;45.378;20.360;2023-03-01T11:31:03;24.35;;;12.50;;
74541;SDS011;63015;45.378;20.360;2023-03-01T11:35:25;28.67;;;13.05;;
74541;SDS011;63015;45.378;20.360;2023-03-01T11:39:37;14.07;;;7.88;;
74541;SDS011;63015;45.378;20.360;2023-03-01T11:41:43;17.20;;;8.35;;
74541;SDS011;63015;45.378;20.360;2023-03-01T11:44:01;14.63;;;6.95;;
74541;SDS011;63015;45.378;20.360;2023-03-01T11:50:47;20.67;;;11.48;;
74541;SDS011;63015;45.378;20.360;2023-03-01T11:53:09;21.02;;;10.25;;
74541;SDS011;63015;45.378;20.360;2023-03-01T12:00:10;20.50;;;10.80;;
74541;SDS011;63015;45.378;20.360;2023-03-01T12:02:27;24.33;;;11.80;;
74541;SDS011;63015;45.378;20.360;2023-03-01T12:05:31;24.20;;;11.52;;
74541;SDS011;63015;45.378;20.360;2023-03-01T12:16:19;17.77;;;9.77;;
74541;SDS011;63015;45.378;20.360;2023-03-01T12:25:21;20.95;;;11.48;;
74541;SDS011;63015;45.378;20.360;2023-03-01T12:27:33;19.35;;;9.20;;
74541;SDS011;63015;45.378;20.360;2023-03-01T12:29:46;20.25;;;8.75;;
74541;SDS011;63015;45.378;20.360;2023-03-01T12:41:54;18.85;;;10.68;;
74541;SDS011;63015;45.378;20.360;2023-03-01T12:48:59;15.77;;;7.57;;
74541;SDS011;63015;45.378;20.360;2023-03-01T12:51:11;18.92;;;9.30;;
74541;SDS011;63015;45.378;20.360;2023-03-01T12:53:27;15.60;;;8.15;;
74541;SDS011;63015;45.378;20.360;2023-03-01T12:55:33;21.25;;;10.82;;
74541;SDS011;63015;45.378;20.360;2023-03-01T12:57:42;19.63;;;10.75;;
74541;SDS011;63015;45.378;20.360;2023-03-01T13:00:06;21.30;;;10.68;;
74541;SDS011;63015;45.378;20.360;2023-03-01T13:02:23;15.05;;;8.35;;
74541;SDS011;63015;45.378;20.360;2023-03-01T13:06:57;23.15;;;12.23;;
74541;SDS011;63015;45.378;20.360;2023-03-01T13:09:10;19.25;;;10.35;;
74541;SDS011;63015;45.378;20.360;2023-03-01T13:11:21;21.00;;;10.65;;
74541;SDS011;63015;45.378;20.360;2023-03-01T13:13:24;19.77;;;10.93;;
74541;SDS011;63015;45.378;20.360;2023-03-01T13:17:40;14.32;;;7.07;;